Time;durP1;ratioP1;P1;durP2;ratioP2;P2;SDS_P1;SDS_P2;PMS_P1;PMS_P2;Temp;Humidity;BMP_temperature;BMP_pressure;BME280_temperature;BME280_humidity;BME280_pressure;Samples;Min_cycle;Max_cycle;Signal;HPM_P1;HPM_P2
2022/06/29 00:00:45;;;;;;;;;;;17.50;99.90;;;;;;4988089;28;20390;-71
2022/06/29 00:03:10;;;;;;;;;;;17.50;99.90;;;;;;4986702;28;20389;-73
2022/06/29 00:05:36;;;;;;;;;;;17.50;99.90;;;;;;4970751;28;19921;-72
2022/06/29 00:08:01;;;;;;;;;;;17.50;99.90;;;;;;4991988;28;19921;-71
2022/06/29 00:10:27;;;;;;;;;;;17.50;99.90;;;;;;4988441;28;20027;-71
2022/06/29 00:12:53;;;;;;;;;;;17.40;99.90;;;;;;4991903;28;20365;-71
2022/06/29 00:15:19;;;;;;;;;;;17.40;99.90;;;;;;4998300;28;20265;-71
2022/06/29 00:17:45;;;;;;;;;;;17.40;99.90;;;;;;5005620;28;19918;-71
2022/06/29 00:20:12;;;;;;;;;;;17.40;99.90;;;;;;5007189;28;19967;-71
2022/06/29 00:22:38;;;;;;;;;;;17.40;99.90;;;;;;5004332;28;20440;-73
2022/06/29 00:25:04;;;;;;;;;;;17.40;99.90;;;;;;5006287;28;19984;-72
2022/06/29 00:27:29;;;;;;;;;;;17.30;99.90;;;;;;5006040;28;19921;-71
2022/06/29 00:29:55;;;;;;;;;;;17.30;99.90;;;;;;4984989;28;19926;-71
2022/06/29 00:32:20;;;;;;;;;;;17.20;99.90;;;;;;4988155;28;20309;-71
2022/06/29 00:34:46;;;;;;;;;;;17.30;99.90;;;;;;4986421;28;20353;-71
2022/06/29 00:37:11;;;;;;;;;;;17.10;99.90;;;;;;4986433;28;20024;-71
2022/06/29 00:39:37;;;;;;;;;;;17.20;99.90;;;;;;4985537;28;20413;-71
2022/06/29 00:42:03;;;;;;;;;;;17.10;99.90;;;;;;4987065;28;19917;-71
2022/06/29 00:44:29;;;;;;;;;;;17.10;99.90;;;;;;5000156;28;20354;-71
2022/06/29 00:46:56;;;;;;;;;;;17.20;99.90;;;;;;5006190;28;20301;-71
2022/06/29 00:49:22;;;;;;;;;;;17.10;99.90;;;;;;5000814;28;20004;-71
2022/06/29 00:51:49;;;;;;;;;;;17.00;99.90;;;;;;4985671;28;19918;-71
2022/06/29 00:54:17;;;;;;;;;;;17.00;99.90;;;;;;4987299;28;19929;-71
2022/06/29 00:56:43;;;;;;;;;;;17.00;99.90;;;;;;4986486;28;19988;-71
2022/06/29 00:59:11;;;;;;;;;;;17.00;99.90;;;;;;4990794;28;20172;-71
2022/06/29 01:01:37;;;;;;;;;;;17.00;99.90;;;;;;4989795;28;20019;-71
2022/06/29 01:04:03;;;;;;;;;;;16.90;99.90;;;;;;4986405;28;19921;-71
2022/06/29 01:06:28;;;;;;;;;;;16.90;99.90;;;;;;4985732;28;20321;-71
2022/06/29 01:08:54;;;;;;;;;;;16.90;99.90;;;;;;4986524;28;19922;-72
2022/06/29 01:11:20;;;;;;;;;;;16.90;99.90;;;;;;5006006;28;20040;-72
2022/06/29 01:13:47;;;;;;;;;;;16.80;99.90;;;;;;4996171;28;20408;-71
2022/06/29 01:16:13;;;;;;;;;;;16.80;99.90;;;;;;4997876;28;19921;-71
2022/06/29 01:18:38;;;;;;;;;;;16.80;99.90;;;;;;4985884;28;19925;-71
2022/06/29 01:21:04;;;;;;;;;;;16.80;99.90;;;;;;4985425;28;20219;-71
2022/06/29 01:23:30;;;;;;;;;;;16.70;99.90;;;;;;4985319;28;19922;-71
2022/06/29 01:25:55;;;;;;;;;;;16.70;99.90;;;;;;4989186;28;19917;-72
2022/06/29 01:28:21;;;;;;;;;;;16.70;99.90;;;;;;4986326;28;19976;-71
2022/06/29 01:30:46;;;;;;;;;;;16.60;99.90;;;;;;4986645;28;19924;-71
2022/06/29 01:33:12;;;;;;;;;;;16.60;99.90;;;;;;4985501;28;19922;-71
2022/06/29 01:35:37;;;;;;;;;;;16.60;99.90;;;;;;5018465;28;19961;-71
2022/06/29 01:38:03;;;;;;;;;;;16.60;99.90;;;;;;5001973;28;19917;-71
2022/06/29 01:40:28;;;;;;;;;;;16.60;99.90;;;;;;5004761;28;19952;-72
2022/06/29 01:42:55;;;;;;;;;;;16.60;99.90;;;;;;4999326;28;19952;-71
2022/06/29 01:45:21;;;;;;;;;;;16.50;99.90;;;;;;4984726;28;19925;-72
2022/06/29 01:47:46;;;;;;;;;;;16.50;99.90;;;;;;4984920;28;19925;-71
2022/06/29 01:50:12;;;;;;;;;;;16.50;99.90;;;;;;4985342;28;19926;-72
2022/06/29 01:52:37;;;;;;;;;;;16.50;99.90;;;;;;5003625;28;19921;-71
2022/06/29 01:55:03;;;;;;;;;;;16.50;99.90;;;;;;5005084;28;20277;-73
2022/06/29 01:57:29;;;;;;;;;;;16.50;99.90;;;;;;5019845;28;19965;-72
2022/06/29 01:59:54;;;;;;;;;;;16.50;99.90;;;;;;4993756;28;19917;-71
2022/06/29 02:02:19;;;;;;;;;;;16.50;99.90;;;;;;4999461;28;19917;-71
2022/06/29 02:04:45;;;;;;;;;;;16.40;99.90;;;;;;5000956;28;20345;-71
2022/06/29 02:07:11;;;;;;;;;;;16.50;99.90;;;;;;4987142;28;20023;-71
2022/06/29 02:09:36;;;;;;;;;;;16.40;99.90;;;;;;4984840;28;19922;-71
2022/06/29 02:12:02;;;;;;;;;;;16.40;99.90;;;;;;4986222;28;19929;-71
2022/06/29 02:14:29;;;;;;;;;;;16.50;99.90;;;;;;4984569;28;20297;-71
2022/06/29 02:16:55;;;;;;;;;;;16.50;99.90;;;;;;4993685;28;20017;-71
2022/06/29 02:19:20;;;;;;;;;;;16.50;99.90;;;;;;4986357;28;19996;-72
2022/06/29 02:21:46;;;;;;;;;;;16.50;99.90;;;;;;4986651;28;20301;-71
2022/06/29 02:24:11;;;;;;;;;;;16.60;99.90;;;;;;4992355;28;20016;-72
2022/06/29 02:26:37;;;;;;;;;;;16.60;99.90;;;;;;4991222;28;19929;-73
2022/06/29 02:29:02;;;;;;;;;;;16.60;99.90;;;;;;4996531;28;19925;-71
2022/06/29 02:36:56;;;;;;;;;;;16.60;99.90;;;;;;4988606;28;20000;-71
2022/06/29 02:39:22;;;;;;;;;;;16.60;99.90;;;;;;4989613;28;20008;-73
2022/06/29 02:41:47;;;;;;;;;;;16.60;99.90;;;;;;4988478;28;20341;-71
2022/06/29 02:44:13;;;;;;;;;;;16.50;99.90;;;;;;4987925;28;20113;-72
2022/06/29 02:46:38;;;;;;;;;;;16.60;99.90;;;;;;4989633;28;19930;-72
2022/06/29 02:49:04;;;;;;;;;;;16.60;99.90;;;;;;4988706;28;20001;-71
2022/06/29 02:51:29;;;;;;;;;;;16.60;99.90;;;;;;5006148;28;19932;-71
2022/06/29 02:53:55;;;;;;;;;;;16.60;99.90;;;;;;4988544;28;20520;-72
2022/06/29 02:56:20;;;;;;;;;;;16.60;99.90;;;;;;4988912;28;19993;-71
2022/06/29 02:58:46;;;;;;;;;;;16.50;99.90;;;;;;4989302;28;20153;-71
2022/06/29 03:01:11;;;;;;;;;;;16.60;99.90;;;;;;4987049;28;20021;-72
2022/06/29 03:03:37;;;;;;;;;;;16.60;99.90;;;;;;4988715;28;20030;-71
2022/06/29 03:06:02;;;;;;;;;;;16.60;99.90;;;;;;4989220;28;20310;-71
2022/06/29 03:08:28;;;;;;;;;;;16.60;99.90;;;;;;4987038;28;19932;-72
2022/06/29 03:10:53;;;;;;;;;;;16.60;99.90;;;;;;4988589;28;19918;-71
2022/06/29 03:13:19;;;;;;;;;;;16.50;99.90;;;;;;4988925;28;19924;-71
2022/06/29 03:15:44;;;;;;;;;;;16.50;99.90;;;;;;5004374;28;20357;-71
2022/06/29 03:18:10;;;;;;;;;;;16.50;99.90;;;;;;5002233;28;19980;-72
2022/06/29 03:20:35;;;;;;;;;;;16.40;99.90;;;;;;4987355;28;20104;-71
2022/06/29 03:23:01;;;;;;;;;;;16.40;99.90;;;;;;4989310;28;19917;-72
2022/06/29 03:25:26;;;;;;;;;;;16.40;99.90;;;;;;4988252;28;19918;-71
2022/06/29 03:27:52;;;;;;;;;;;16.40;99.90;;;;;;4987619;28;20061;-71
2022/06/29 03:30:18;;;;;;;;;;;16.40;99.90;;;;;;4986835;28;20028;-71
2022/06/29 03:32:43;;;;;;;;;;;16.30;99.90;;;;;;4987994;28;19984;-72
2022/06/29 03:35:09;;;;;;;;;;;16.30;99.90;;;;;;4987008;28;19949;-71
2022/06/29 03:37:34;;;;;;;;;;;16.30;99.90;;;;;;4989111;28;19924;-71
2022/06/29 03:40:00;;;;;;;;;;;16.30;99.90;;;;;;4991144;28;19961;-71
2022/06/29 03:42:26;;;;;;;;;;;16.30;99.90;;;;;;5002523;28;19918;-73
2022/06/29 03:44:51;;;;;;;;;;;16.20;99.90;;;;;;4988295;28;20478;-71
2022/06/29 03:47:17;;;;;;;;;;;16.20;99.90;;;;;;4988454;28;20012;-71
2022/06/29 03:49:42;;;;;;;;;;;16.20;99.90;;;;;;4986475;28;20534;-71
2022/06/29 03:52:08;;;;;;;;;;;16.20;99.90;;;;;;5001001;28;19924;-71
2022/06/29 03:54:33;;;;;;;;;;;16.20;99.90;;;;;;4987213;28;19987;-72
2022/06/29 03:57:02;;;;;;;;;;;16.20;99.90;;;;;;5029475;23;19932;-86
2022/06/29 03:59:28;;;;;;;;;;;16.20;99.90;;;;;;5031525;28;19960;-86
2022/06/29 04:01:58;;;;;;;;;;;16.20;99.90;;;;;;5001531;28;19928;-86
2022/06/29 04:04:27;;;;;;;;;;;16.20;99.90;;;;;;5034541;28;19917;-86
2022/06/29 04:06:58;;;;;;;;;;;16.10;99.90;;;;;;5023581;28;19923;-85
2022/06/29 04:09:27;;;;;;;;;;;16.20;99.90;;;;;;5040521;28;19921;-85
2022/06/29 04:11:56;;;;;;;;;;;16.20;99.90;;;;;;5018670;28;20323;-86
2022/06/29 04:14:28;;;;;;;;;;;16.20;99.90;;;;;;5033474;28;19920;-86
2022/06/29 04:16:57;;;;;;;;;;;16.20;99.90;;;;;;5012570;28;20168;-85
2022/06/29 04:19:28;;;;;;;;;;;16.20;99.90;;;;;;5033570;28;20004;-85
2022/06/29 04:21:57;;;;;;;;;;;16.30;99.90;;;;;;5033439;28;19924;-86
2022/06/29 04:24:26;;;;;;;;;;;16.30;99.90;;;;;;5035622;28;19917;-85
2022/06/29 04:26:57;;;;;;;;;;;16.30;99.90;;;;;;5011240;28;19967;-86
2022/06/29 04:29:29;;;;;;;;;;;16.30;99.90;;;;;;5017534;28;19929;-86
2022/06/29 04:31:57;;;;;;;;;;;16.30;99.90;;;;;;5041731;28;19917;-85
2022/06/29 04:34:34;;;;;;;;;;;16.30;99.90;;;;;;5057831;28;19927;-85
2022/06/29 04:37:09;;;;;;;;;;;16.40;99.90;;;;;;5020659;28;19920;-87
2022/06/29 04:39:40;;;;;;;;;;;16.40;99.90;;;;;;5034877;28;19966;-87
2022/06/29 04:42:09;;;;;;;;;;;16.40;99.90;;;;;;5018114;28;19921;-87
2022/06/29 04:44:41;;;;;;;;;;;16.40;99.90;;;;;;5012736;28;19925;-87
2022/06/29 04:47:18;;;;;;;;;;;16.40;99.90;;;;;;5019275;28;19920;-87
2022/06/29 04:49:47;;;;;;;;;;;16.40;99.90;;;;;;5034774;28;20386;-86
2022/06/29 04:52:15;;;;;;;;;;;16.50;99.90;;;;;;5038501;28;19922;-87
2022/06/29 04:54:41;;;;;;;;;;;16.40;99.90;;;;;;5031990;28;19916;-88
2022/06/29 04:57:12;;;;;;;;;;;16.50;99.90;;;;;;5025627;28;19916;-87
2022/06/29 04:59:45;;;;;;;;;;;16.50;99.90;;;;;;5036645;28;19917;-87
2022/06/29 05:02:13;;;;;;;;;;;16.50;99.90;;;;;;5047578;28;19980;-87
2022/06/29 05:04:39;;;;;;;;;;;16.50;99.90;;;;;;5024077;28;19917;-87
2022/06/29 05:07:08;;;;;;;;;;;16.60;99.90;;;;;;5022755;28;19967;-87
2022/06/29 05:09:39;;;;;;;;;;;16.60;99.90;;;;;;5033715;28;19927;-87
2022/06/29 05:12:08;;;;;;;;;;;16.60;99.90;;;;;;5028717;28;19917;-87
2022/06/29 05:14:43;;;;;;;;;;;16.70;99.90;;;;;;5032201;28;19944;-87
2022/06/29 05:17:08;;;;;;;;;;;16.70;99.90;;;;;;5033265;28;19916;-86
2022/06/29 05:19:43;;;;;;;;;;;16.80;99.90;;;;;;5036566;28;19975;-87
2022/06/29 05:22:14;;;;;;;;;;;16.80;99.90;;;;;;5048842;28;19920;-88
2022/06/29 05:24:40;;;;;;;;;;;16.80;99.90;;;;;;5052271;28;19924;-87
2022/06/29 05:27:09;;;;;;;;;;;16.80;99.90;;;;;;5035151;28;20426;-87
2022/06/29 05:29:48;;;;;;;;;;;16.80;99.90;;;;;;5033959;28;20381;-87
2022/06/29 05:32:13;;;;;;;;;;;16.80;99.90;;;;;;5016945;28;19979;-87
2022/06/29 05:34:39;;;;;;;;;;;16.80;99.90;;;;;;5033613;28;19916;-87
2022/06/29 05:37:14;;;;;;;;;;;16.80;99.90;;;;;;5034359;28;19975;-87
2022/06/29 05:39:45;;;;;;;;;;;16.90;99.90;;;;;;5031995;28;20007;-87
2022/06/29 05:42:14;;;;;;;;;;;16.80;99.90;;;;;;5031704;28;19932;-87
2022/06/29 05:44:40;;;;;;;;;;;17.00;99.90;;;;;;5031188;28;19917;-86
2022/06/29 05:47:18;;;;;;;;;;;16.90;99.90;;;;;;5014050;28;20318;-87
2022/06/29 05:49:47;;;;;;;;;;;16.90;99.90;;;;;;5016150;28;19925;-87
2022/06/29 05:52:15;;;;;;;;;;;17.00;99.90;;;;;;5016246;28;20276;-87
2022/06/29 05:54:46;;;;;;;;;;;17.10;99.90;;;;;;5033839;28;19988;-87
2022/06/29 05:57:12;;;;;;;;;;;17.10;99.90;;;;;;5035934;28;19921;-86
2022/06/29 05:59:40;;;;;;;;;;;17.20;99.90;;;;;;5038373;28;20360;-87
2022/06/29 06:02:15;;;;;;;;;;;17.20;99.90;;;;;;5024426;28;19980;-87
2022/06/29 06:04:43;;;;;;;;;;;17.30;99.90;;;;;;5039068;28;19979;-87
2022/06/29 06:07:09;;;;;;;;;;;17.30;99.90;;;;;;5026490;28;19947;-88
2022/06/29 06:09:38;;;;;;;;;;;17.40;99.90;;;;;;5027151;28;19921;-87
2022/06/29 06:12:12;;;;;;;;;;;17.50;99.90;;;;;;5037770;28;19995;-87
2022/06/29 06:14:38;;;;;;;;;;;17.50;99.90;;;;;;5056316;28;19963;-87
2022/06/29 06:17:12;;;;;;;;;;;17.60;99.90;;;;;;5050213;28;19928;-87
2022/06/29 06:19:41;;;;;;;;;;;17.70;99.90;;;;;;5019476;28;19917;-87
2022/06/29 06:22:12;;;;;;;;;;;17.80;99.90;;;;;;5020671;28;19921;-86
2022/06/29 06:24:38;;;;;;;;;;;17.80;99.90;;;;;;5017959;28;19925;-87
2022/06/29 06:27:10;;;;;;;;;;;17.80;99.90;;;;;;5036776;28;19917;-87
2022/06/29 06:29:39;;;;;;;;;;;18.00;99.90;;;;;;5027983;28;19967;-88
2022/06/29 06:32:11;;;;;;;;;;;18.00;99.90;;;;;;5035147;28;20023;-87
2022/06/29 06:34:42;;;;;;;;;;;18.10;99.90;;;;;;5031483;28;19917;-88
2022/06/29 06:37:10;;;;;;;;;;;18.20;99.90;;;;;;5036763;28;20055;-87
2022/06/29 06:41:21;;;;;;;;;;;18.20;99.90;;;;;;5056984;28;19943;-87
2022/06/29 06:42:30;;;;;;;;;;;18.30;99.90;;;;;;5046648;28;19923;-87
2022/06/29 06:45:01;;;;;;;;;;;18.40;99.90;;;;;;5010697;28;19927;-87
2022/06/29 06:47:50;;;;;;;;;;;18.40;99.90;;;;;;5030927;28;20446;-87
2022/06/29 06:50:33;;;;;;;;;;;18.60;99.90;;;;;;5035488;28;20566;-86
2022/06/29 06:53:11;;;;;;;;;;;18.60;99.90;;;;;;5035571;28;19956;-88
2022/06/29 06:55:40;;;;;;;;;;;18.70;99.90;;;;;;5019427;28;20379;-87
2022/06/29 06:58:18;;;;;;;;;;;18.80;99.90;;;;;;5018474;28;20008;-87
2022/06/29 07:00:51;;;;;;;;;;;18.90;99.90;;;;;;5041779;28;19927;-88
2022/06/29 07:03:56;;;;;;;;;;;;;;;;;;;;;
2022/06/29 07:06:30;;;;;;;;;;;19.00;99.90;;;;;;5015914;28;19917;-88
2022/06/29 07:09:07;;;;;;;;;;;;;;;;;;;;;
2022/06/29 07:12:09;;;;;;;;;;;19.20;99.90;;;;;;5022784;28;19923;-87
2022/06/29 07:14:53;;;;;;;;;;;19.30;99.90;;;;;;5035191;28;19917;-87
2022/06/29 07:17:19;;;;;;;;;;;19.40;99.90;;;;;;5018832;28;19951;-87
2022/06/29 07:20:00;;;;;;;;;;;;;;;;;;;;;
2022/06/29 07:22:26;;;;;;;;;;;19.60;99.90;;;;;;5034950;28;19920;-87
2022/06/29 07:25:02;;;;;;;;;;;19.70;99.90;;;;;;5035083;28;19924;-88
2022/06/29 07:27:43;;;;;;;;;;;19.80;99.90;;;;;;5031200;28;19921;-87
2022/06/29 07:30:18;;;;;;;;;;;19.80;99.90;;;;;;5019319;28;20240;-87
2022/06/29 07:32:54;;;;;;;;;;;19.90;99.90;;;;;;5034512;28;19917;-87
2022/06/29 07:35:31;;;;;;;;;;;19.90;99.90;;;;;;5019951;28;19917;-87
2022/06/29 07:38:01;;;;;;;;;;;20.00;99.90;;;;;;5014836;28;19918;-88
2022/06/29 07:40:33;;;;;;;;;;;20.00;99.90;;;;;;5015772;28;19944;-87
2022/06/29 07:42:58;;;;;;;;;;;20.20;99.90;;;;;;5019116;28;19925;-88
2022/06/29 07:45:27;;;;;;;;;;;20.20;99.90;;;;;;5017524;28;20457;-88
2022/06/29 07:48:02;;;;;;;;;;;20.30;99.90;;;;;;5017861;28;19970;-88
2022/06/29 07:50:42;;;;;;;;;;;20.40;99.90;;;;;;5034529;28;20008;-87
2022/06/29 07:53:11;;;;;;;;;;;20.50;99.90;;;;;;5017429;28;20421;-87
2022/06/29 07:55:39;;;;;;;;;;;20.50;99.90;;;;;;5036974;28;19925;-87
2022/06/29 07:58:08;;;;;;;;;;;20.60;99.90;;;;;;5049041;28;19948;-87
2022/06/29 08:00:38;;;;;;;;;;;20.70;99.90;;;;;;5050063;28;19917;-87
2022/06/29 08:03:09;;;;;;;;;;;20.80;99.90;;;;;;5043185;28;19921;-86
2022/06/29 08:05:38;;;;;;;;;;;20.80;99.90;;;;;;5031460;28;19940;-86
2022/06/29 08:08:09;;;;;;;;;;;20.90;99.90;;;;;;5035806;28;19923;-86
2022/06/29 08:10:38;;;;;;;;;;;21.00;99.90;;;;;;5033462;28;19917;-87
2022/06/29 08:13:13;;;;;;;;;;;21.10;99.90;;;;;;5032392;28;20458;-86
2022/06/29 08:15:38;;;;;;;;;;;21.20;99.90;;;;;;5036081;28;20009;-85
2022/06/29 08:18:07;;;;;;;;;;;21.30;99.90;;;;;;5039266;28;19956;-87
2022/06/29 08:20:38;;;;;;;;;;;21.30;99.90;;;;;;5019112;28;19972;-87
2022/06/29 08:23:12;;;;;;;;;;;21.40;99.90;;;;;;5017154;28;19967;-86
2022/06/29 08:25:38;;;;;;;;;;;21.40;99.90;;;;;;5017596;28;20114;-86
2022/06/29 08:28:12;;;;;;;;;;;21.50;99.90;;;;;;5018234;28;20290;-86
2022/06/29 08:30:38;;;;;;;;;;;21.60;99.90;;;;;;5015507;28;19917;-86
2022/06/29 08:33:11;;;;;;;;;;;21.60;99.90;;;;;;5016205;28;19921;-86
2022/06/29 08:35:37;;;;;;;;;;;21.70;99.90;;;;;;5035941;28;19917;-86
2022/06/29 08:38:09;;;;;;;;;;;21.80;99.90;;;;;;5038063;28;19923;-86
2022/06/29 08:40:44;;;;;;;;;;;21.90;99.90;;;;;;5032977;28;19960;-86
2022/06/29 08:43:14;;;;;;;;;;;22.00;99.90;;;;;;5018570;28;19916;-86
2022/06/29 08:45:45;;;;;;;;;;;22.00;99.90;;;;;;5017778;28;19924;-86
2022/06/29 08:48:11;;;;;;;;;;;22.10;99.90;;;;;;5035742;28;19935;-85
2022/06/29 08:50:38;;;;;;;;;;;22.20;99.90;;;;;;5032125;28;20371;-86
2022/06/29 08:53:13;;;;;;;;;;;22.30;99.90;;;;;;5016562;28;20077;-86
2022/06/29 08:55:44;;;;;;;;;;;22.30;99.90;;;;;;5018070;28;19917;-86
2022/06/29 08:58:16;;;;;;;;;;;22.40;99.90;;;;;;5016999;28;20314;-87
2022/06/29 09:00:42;;;;;;;;;;;22.50;99.90;;;;;;5050446;28;19921;-86
2022/06/29 09:03:08;;;;;;;;;;;22.60;99.90;;;;;;5040917;28;19917;-86
2022/06/29 09:05:38;;;;;;;;;;;22.70;99.90;;;;;;5015181;28;19917;-86
2022/06/29 09:08:12;;;;;;;;;;;22.80;99.90;;;;;;5034918;28;19917;-86
2022/06/29 09:10:38;;;;;;;;;;;22.90;99.90;;;;;;5016652;28;19924;-86
2022/06/29 09:13:17;;;;;;;;;;;23.00;99.90;;;;;;5030866;28;19944;-87
2022/06/29 09:15:46;;;;;;;;;;;23.10;99.90;;;;;;5016611;28;19923;-86
2022/06/29 09:18:41;;;;;;;;;;;23.20;99.90;;;;;;5031278;28;19917;-86
2022/06/29 09:21:10;;;;;;;;;;;23.20;99.90;;;;;;5020422;28;19952;-87
2022/06/29 09:23:51;;;;;;;;;;;23.20;99.90;;;;;;5032320;28;19944;-86
2022/06/29 09:26:19;;;;;;;;;;;23.30;99.90;;;;;;5035263;28;20004;-86
2022/06/29 09:28:53;;;;;;;;;;;23.40;99.90;;;;;;5037222;28;19921;-86
2022/06/29 09:31:19;;;;;;;;;;;23.60;99.90;;;;;;5021070;28;20306;-86
2022/06/29 09:33:49;;;;;;;;;;;23.70;99.90;;;;;;5017649;28;19924;-86
2022/06/29 09:36:17;;;;;;;;;;;23.70;99.90;;;;;;5017421;28;20347;-86
2022/06/29 09:38:49;;;;;;;;;;;23.80;99.90;;;;;;5016037;28;19921;-86
2022/06/29 09:41:17;;;;;;;;;;;23.90;99.90;;;;;;5033516;28;19960;-87
2022/06/29 09:43:50;;;;;;;;;;;24.00;99.90;;;;;;5017429;28;20323;-86
2022/06/29 09:46:19;;;;;;;;;;;24.10;99.90;;;;;;5017417;28;20000;-86
2022/06/29 09:48:51;;;;;;;;;;;24.20;99.90;;;;;;5035099;28;20331;-86
2022/06/29 09:51:32;;;;;;;;;;;24.30;99.90;;;;;;5028992;28;19925;-86
2022/06/29 09:54:11;;;;;;;;;;;24.30;98.20;;;;;;5033900;28;20007;-86
2022/06/29 10:02:34;;;;;;;;;;;24.60;99.90;;;;;;5034399;28;20048;-69
2022/06/29 10:05:01;;;;;;;;;;;24.70;99.90;;;;;;5029127;28;19939;-69
2022/06/29 10:07:30;;;;;;;;;;;24.80;98.00;;;;;;5046737;28;19916;-70
2022/06/29 10:10:00;;;;;;;;;;;24.90;97.60;;;;;;5030097;28;20395;-70
2022/06/29 10:15:20;;;;;;;;;;;25.00;97.20;;;;;;5043966;28;19917;-69
2022/06/29 10:17:56;;;;;;;;;;;25.10;94.20;;;;;;5029171;28;19962;-69
2022/06/29 10:20:33;;;;;;;;;;;25.10;91.50;;;;;;5029331;28;19917;-69
2022/06/29 10:22:59;;;;;;;;;;;25.10;93.10;;;;;;5042486;28;19917;-69
2022/06/29 10:25:27;;;;;;;;;;;25.10;94.20;;;;;;5000248;28;19939;-70
2022/06/29 10:28:08;;;;;;;;;;;25.10;93.30;;;;;;5046287;28;20269;-69
2022/06/29 10:30:34;;;;;;;;;;;25.10;93.40;;;;;;5029843;28;19921;-69
2022/06/29 10:33:25;;;;;;;;;;;25.20;98.80;;;;;;5029822;28;19920;-70
2022/06/29 10:35:55;;;;;;;;;;;25.20;96.30;;;;;;5047031;28;20392;-70
2022/06/29 10:38:22;;;;;;;;;;;25.30;97.80;;;;;;5030054;28;20019;-70
2022/06/29 10:41:05;;;;;;;;;;;25.30;98.40;;;;;;5046591;28;19917;-69
2022/06/29 10:43:31;;;;;;;;;;;25.40;98.30;;;;;;5015640;28;19917;-69
2022/06/29 10:45:57;;;;;;;;;;;25.60;90.70;;;;;;5050932;28;19931;-69
2022/06/29 10:48:25;;;;;;;;;;;25.70;92.10;;;;;;5033278;28;20377;-70
2022/06/29 10:50:51;;;;;;;;;;;25.80;88.40;;;;;;5028390;28;20453;-70
2022/06/29 10:53:17;;;;;;;;;;;25.90;93.70;;;;;;5040933;28;20114;-70
2022/06/29 10:55:47;;;;;;;;;;;26.00;92.50;;;;;;5017366;28;19925;-70
2022/06/29 10:58:13;;;;;;;;;;;26.10;97.90;;;;;;5052448;28;20062;-70
2022/06/29 11:00:42;;;;;;;;;;;26.20;95.70;;;;;;5051680;28;19928;-70
2022/06/29 11:03:12;;;;;;;;;;;26.30;91.10;;;;;;5032285;28;19999;-70
2022/06/29 11:12:01;;;;;;;;;;;26.30;84.80;;;;;;5030490;28;19944;-70
2022/06/29 11:13:53;;;;;;;;;;;26.20;76.40;;;;;;5031909;28;19937;-70
2022/06/29 11:16:26;;;;;;;;;;;26.20;73.10;;;;;;5043050;28;19939;-70
2022/06/29 11:18:55;;;;;;;;;;;26.30;77.10;;;;;;5024405;28;19923;-70
2022/06/29 11:21:21;;;;;;;;;;;26.40;85.70;;;;;;5050681;28;19917;-70
2022/06/29 11:23:53;;;;;;;;;;;26.60;93.20;;;;;;5050065;28;20388;-70
2022/06/29 11:26:21;;;;;;;;;;;26.70;93.10;;;;;;5030770;28;19925;-70
2022/06/29 11:28:47;;;;;;;;;;;26.80;84.90;;;;;;5049758;28;19921;-70
2022/06/29 11:31:13;;;;;;;;;;;27.00;72.90;;;;;;5049616;28;19921;-70
2022/06/29 11:33:42;;;;;;;;;;;27.10;81.10;;;;;;5041955;28;19916;-70
2022/06/29 11:36:15;;;;;;;;;;;27.20;65.90;;;;;;5050721;28;19921;-70
2022/06/29 11:38:42;;;;;;;;;;;27.40;71.70;;;;;;5032562;28;20011;-71
2022/06/29 11:41:14;;;;;;;;;;;27.40;61.90;;;;;;5022366;28;19924;-70
2022/06/29 11:43:40;;;;;;;;;;;27.50;69.50;;;;;;5049591;28;19917;-70
2022/06/29 11:46:16;;;;;;;;;;;27.50;62.50;;;;;;5049824;28;19937;-70
2022/06/29 11:49:33;;;;;;;;;;;27.60;57.70;;;;;;5048645;28;20357;-70
2022/06/29 11:51:33;;;;;;;;;;;27.60;57.20;;;;;;5040308;28;19925;-70
2022/06/29 11:54:02;;;;;;;;;;;27.70;60.40;;;;;;5040929;28;19970;-70
2022/06/29 11:56:30;;;;;;;;;;;27.70;65.50;;;;;;5050461;28;19962;-70
2022/06/29 11:59:01;;;;;;;;;;;27.90;62.40;;;;;;5040739;28;19943;-70
2022/06/29 12:01:26;;;;;;;;;;;28.00;63.40;;;;;;5022521;28;19924;-70
2022/06/29 12:03:53;;;;;;;;;;;28.00;59.80;;;;;;5049832;28;20164;-70
2022/06/29 12:06:19;;;;;;;;;;;28.00;61.40;;;;;;5013896;28;19917;-70
2022/06/29 12:08:45;;;;;;;;;;;28.10;56.40;;;;;;5039114;28;19921;-70
2022/06/29 12:11:11;;;;;;;;;;;28.10;58.30;;;;;;4997155;28;20278;-70
2022/06/29 12:13:36;;;;;;;;;;;28.10;57.50;;;;;;5033535;28;20012;-70
2022/06/29 12:16:02;;;;;;;;;;;28.10;52.70;;;;;;5029261;28;20384;-71
2022/06/29 12:18:27;;;;;;;;;;;28.10;51.90;;;;;;5030919;28;20416;-70
2022/06/29 12:20:53;;;;;;;;;;;28.20;55.30;;;;;;5030956;28;19972;-71
2022/06/29 12:23:18;;;;;;;;;;;28.30;56.20;;;;;;5033027;28;19967;-70
2022/06/29 12:25:44;;;;;;;;;;;28.30;52.10;;;;;;5012581;28;20341;-71
2022/06/29 12:28:10;;;;;;;;;;;28.40;54.00;;;;;;5046926;28;20377;-70
2022/06/29 12:30:36;;;;;;;;;;;28.50;57.40;;;;;;5023733;28;19960;-71
2022/06/29 12:33:02;;;;;;;;;;;28.60;55.80;;;;;;5034773;28;19923;-70
2022/06/29 12:35:28;;;;;;;;;;;28.70;55.00;;;;;;5033650;28;20282;-71
2022/06/29 12:37:57;;;;;;;;;;;28.70;54.60;;;;;;5049412;28;19923;-71
2022/06/29 12:40:25;;;;;;;;;;;28.80;57.50;;;;;;5048697;28;19920;-71
2022/06/29 12:42:52;;;;;;;;;;;28.90;57.40;;;;;;5020107;28;19983;-71
2022/06/29 12:45:17;;;;;;;;;;;28.90;54.50;;;;;;5019486;28;20172;-70
2022/06/29 12:47:43;;;;;;;;;;;28.90;53.90;;;;;;5010878;28;20397;-70
2022/06/29 12:50:08;;;;;;;;;;;28.70;50.20;;;;;;5029134;28;19925;-71
2022/06/29 12:52:34;;;;;;;;;;;28.40;49.70;;;;;;5038359;28;20115;-70
2022/06/29 12:54:59;;;;;;;;;;;28.40;51.30;;;;;;5018264;28;20353;-71
2022/06/29 12:57:25;;;;;;;;;;;28.50;53.50;;;;;;5021362;28;19920;-70
2022/06/29 12:59:51;;;;;;;;;;;28.60;54.80;;;;;;5045705;28;19920;-70
2022/06/29 13:02:21;;;;;;;;;;;28.70;57.30;;;;;;5011751;28;20507;-70
2022/06/29 13:04:48;;;;;;;;;;;28.90;54.90;;;;;;5029000;28;20425;-71
2022/06/29 13:07:13;;;;;;;;;;;29.00;52.00;;;;;;5048138;28;19927;-71
2022/06/29 13:09:39;;;;;;;;;;;29.00;51.40;;;;;;5031574;28;20332;-70
2022/06/29 13:12:05;;;;;;;;;;;29.00;55.30;;;;;;5025450;28;19935;-70
2022/06/29 13:14:30;;;;;;;;;;;29.00;56.70;;;;;;5026118;28;19925;-70
2022/06/29 13:16:56;;;;;;;;;;;28.90;54.20;;;;;;5026636;28;19920;-70
2022/06/29 13:19:21;;;;;;;;;;;28.70;53.70;;;;;;5011111;28;20362;-70
2022/06/29 13:21:48;;;;;;;;;;;28.50;54.00;;;;;;5028427;28;20064;-71
2022/06/29 13:24:13;;;;;;;;;;;28.40;56.50;;;;;;5037009;28;19932;-70
2022/06/29 13:26:39;;;;;;;;;;;28.30;56.50;;;;;;5027377;28;19916;-70
2022/06/29 13:29:05;;;;;;;;;;;28.30;60.60;;;;;;5010234;28;19929;-70
2022/06/29 13:31:30;;;;;;;;;;;28.40;54.90;;;;;;5027832;28;19917;-69
2022/06/29 13:33:56;;;;;;;;;;;28.60;57.40;;;;;;5030870;28;19927;-71
2022/06/29 13:36:21;;;;;;;;;;;28.60;57.50;;;;;;5028407;28;19981;-71
2022/06/29 13:38:47;;;;;;;;;;;28.70;53.50;;;;;;5009971;28;20411;-70
2022/06/29 13:41:15;;;;;;;;;;;28.70;55.50;;;;;;5028936;28;19956;-70
2022/06/29 13:43:41;;;;;;;;;;;28.60;54.90;;;;;;5037341;28;20376;-71
2022/06/29 13:46:07;;;;;;;;;;;28.60;54.20;;;;;;5029539;28;19971;-70
2022/06/29 13:48:34;;;;;;;;;;;28.50;54.90;;;;;;5047997;28;19920;-70
2022/06/29 13:50:59;;;;;;;;;;;28.40;54.40;;;;;;5046925;28;19917;-70
2022/06/29 13:53:25;;;;;;;;;;;28.30;55.50;;;;;;5044001;28;19917;-70
2022/06/29 13:55:51;;;;;;;;;;;28.20;55.50;;;;;;5046817;28;20011;-70
2022/06/29 13:58:16;;;;;;;;;;;28.00;56.00;;;;;;5029673;28;20357;-70
2022/06/29 14:00:42;;;;;;;;;;;28.00;58.40;;;;;;5046546;28;19932;-70
2022/06/29 14:03:07;;;;;;;;;;;28.10;60.40;;;;;;5034447;28;19924;-70
2022/06/29 14:05:33;;;;;;;;;;;28.10;59.60;;;;;;5028181;28;19921;-70
2022/06/29 14:07:58;;;;;;;;;;;28.00;57.90;;;;;;5027669;28;19917;-70
2022/06/29 14:10:24;;;;;;;;;;;27.90;62.50;;;;;;5028533;28;20381;-70
2022/06/29 14:12:50;;;;;;;;;;;28.00;61.80;;;;;;5028824;28;19971;-70
2022/06/29 14:15:15;;;;;;;;;;;28.10;67.00;;;;;;5047204;28;19922;-70
2022/06/29 14:17:41;;;;;;;;;;;28.30;65.20;;;;;;5013902;28;19917;-70
2022/06/29 14:20:07;;;;;;;;;;;28.40;63.80;;;;;;5037977;28;19917;-70
2022/06/29 14:22:32;;;;;;;;;;;28.40;63.60;;;;;;5014592;28;19951;-70
2022/06/29 14:24:58;;;;;;;;;;;28.50;59.00;;;;;;5046370;28;20365;-70
2022/06/29 14:27:25;;;;;;;;;;;28.50;59.80;;;;;;5032925;28;19917;-70
2022/06/29 14:29:51;;;;;;;;;;;28.50;64.60;;;;;;5029162;28;19963;-70
2022/06/29 14:32:17;;;;;;;;;;;28.40;64.50;;;;;;5033988;28;19916;-70
2022/06/29 14:34:43;;;;;;;;;;;28.20;62.00;;;;;;5050669;28;20325;-70
2022/06/29 14:37:08;;;;;;;;;;;28.00;63.60;;;;;;5019921;28;19924;-69
2022/06/29 14:39:34;;;;;;;;;;;27.90;68.60;;;;;;5014071;28;20173;-70
2022/06/29 14:42:00;;;;;;;;;;;27.90;60.80;;;;;;5014990;28;19921;-70
2022/06/29 14:44:26;;;;;;;;;;;27.90;60.40;;;;;;5032576;28;20420;-70
2022/06/29 14:46:51;;;;;;;;;;;27.90;64.40;;;;;;5050322;28;19916;-71
2022/06/29 14:49:17;;;;;;;;;;;27.90;62.90;;;;;;5049566;28;19921;-70